sensor_id;sensor_type;location;lat;lon;timestamp;P1;durP1;ratioP1;P2;durP2;ratioP2
18879;SDS011;9572;52.378;13.404;2023-03-19T00:02:24;10.87;;;7.17;;
18879;SDS011;9572;52.378;13.404;2023-03-19T00:04:52;11.00;;;6.83;;
18879;SDS011;9572;52.378;13.404;2023-03-19T00:07:19;12.53;;;7.80;;
18879;SDS011;9572;52.378;13.404;2023-03-19T00:09:46;13.17;;;7.87;;
18879;SDS011;9572;52.378;13.404;2023-03-19T00:12:13;14.30;;;8.50;;
18879;SDS011;9572;52.378;13.404;2023-03-19T00:14:40;10.87;;;7.50;;
18879;SDS011;9572;52.378;13.404;2023-03-19T00:17:07;13.17;;;8.20;;
18879;SDS011;9572;52.378;13.404;2023-03-19T00:19:34;13.60;;;8.10;;
18879;SDS011;9572;52.378;13.404;2023-03-19T00:22:02;13.77;;;7.97;;
18879;SDS011;9572;52.378;13.404;2023-03-19T00:24:30;13.23;;;7.90;;
18879;SDS011;9572;52.378;13.404;2023-03-19T00:26:57;16.10;;;8.57;;
18879;SDS011;9572;52.378;13.404;2023-03-19T00:29:24;14.73;;;7.93;;
18879;SDS011;9572;52.378;13.404;2023-03-19T00:31:51;12.97;;;7.77;;
18879;SDS011;9572;52.378;13.404;2023-03-19T00:34:18;14.90;;;8.17;;
18879;SDS011;9572;52.378;13.404;2023-03-19T00:36:45;11.60;;;7.23;;
18879;SDS011;9572;52.378;13.404;2023-03-19T00:39:14;11.97;;;7.30;;
18879;SDS011;9572;52.378;13.404;2023-03-19T00:41:41;10.43;;;7.07;;
18879;SDS011;9572;52.378;13.404;2023-03-19T00:44:14;10.77;;;6.80;;
18879;SDS011;9572;52.378;13.404;2023-03-19T00:46:41;10.83;;;6.73;;
18879;SDS011;9572;52.378;13.404;2023-03-19T00:49:08;12.53;;;6.77;;
18879;SDS011;9572;52.378;13.404;2023-03-19T00:51:35;10.83;;;7.10;;
18879;SDS011;9572;52.378;13.404;2023-03-19T00:54:02;10.40;;;7.10;;
18879;SDS011;9572;52.378;13.404;2023-03-19T00:56:30;11.83;;;7.30;;
18879;SDS011;9572;52.378;13.404;2023-03-19T00:58:57;15.00;;;7.70;;
18879;SDS011;9572;52.378;13.404;2023-03-19T01:01:23;12.10;;;7.23;;
18879;SDS011;9572;52.378;13.404;2023-03-19T01:03:50;11.93;;;7.00;;
18879;SDS011;9572;52.378;13.404;2023-03-19T01:06:17;13.70;;;7.70;;
18879;SDS011;9572;52.378;13.404;2023-03-19T01:08:46;12.40;;;7.80;;
18879;SDS011;9572;52.378;13.404;2023-03-19T01:11:13;11.57;;;7.90;;
18879;SDS011;9572;52.378;13.404;2023-03-19T01:13:43;12.80;;;7.40;;
18879;SDS011;9572;52.378;13.404;2023-03-19T01:16:10;11.97;;;7.57;;
18879;SDS011;9572;52.378;13.404;2023-03-19T01:18:37;12.40;;;8.20;;
18879;SDS011;9572;52.378;13.404;2023-03-19T01:21:04;12.50;;;7.07;;
18879;SDS011;9572;52.378;13.404;2023-03-19T01:23:32;12.63;;;7.37;;
18879;SDS011;9572;52.378;13.404;2023-03-19T01:25:59;11.10;;;7.10;;
18879;SDS011;9572;52.378;13.404;2023-03-19T01:28:26;11.77;;;7.57;;
18879;SDS011;9572;52.378;13.404;2023-03-19T01:30:58;13.13;;;7.53;;
18879;SDS011;9572;52.378;13.404;2023-03-19T01:33:26;16.03;;;8.10;;
18879;SDS011;9572;52.378;13.404;2023-03-19T01:35:53;12.77;;;7.53;;
18879;SDS011;9572;52.378;13.404;2023-03-19T01:38:22;12.73;;;7.80;;
18879;SDS011;9572;52.378;13.404;2023-03-19T01:40:49;12.20;;;8.40;;
18879;SDS011;9572;52.378;13.404;2023-03-19T01:43:17;14.30;;;7.63;;
18879;SDS011;9572;52.378;13.404;2023-03-19T01:45:45;15.37;;;8.03;;
18879;SDS011;9572;52.378;13.404;2023-03-19T01:48:20;15.47;;;8.17;;
18879;SDS011;9572;52.378;13.404;2023-03-19T01:50:52;12.53;;;7.97;;
18879;SDS011;9572;52.378;13.404;2023-03-19T01:53:21;16.80;;;8.67;;
18879;SDS011;9572;52.378;13.404;2023-03-19T01:55:51;14.97;;;8.40;;
18879;SDS011;9572;52.378;13.404;2023-03-19T01:58:20;12.27;;;7.80;;
18879;SDS011;9572;52.378;13.404;2023-03-19T02:00:47;15.30;;;8.50;;
18879;SDS011;9572;52.378;13.404;2023-03-19T02:03:14;13.03;;;8.00;;
18879;SDS011;9572;52.378;13.404;2023-03-19T02:05:43;13.57;;;8.07;;
18879;SDS011;9572;52.378;13.404;2023-03-19T02:08:14;12.60;;;8.27;;
18879;SDS011;9572;52.378;13.404;2023-03-19T02:10:42;13.83;;;8.67;;
18879;SDS011;9572;52.378;13.404;2023-03-19T02:13:11;16.20;;;9.00;;
18879;SDS011;9572;52.378;13.404;2023-03-19T02:15:38;16.60;;;9.40;;
18879;SDS011;9572;52.378;13.404;2023-03-19T02:18:06;16.77;;;9.70;;
18879;SDS011;9572;52.378;13.404;2023-03-19T02:20:34;18.83;;;10.03;;
18879;SDS011;9572;52.378;13.404;2023-03-19T02:23:11;17.80;;;9.90;;
18879;SDS011;9572;52.378;13.404;2023-03-19T02:25:51;16.20;;;9.60;;
18879;SDS011;9572;52.378;13.404;2023-03-19T02:28:29;16.00;;;9.73;;
18879;SDS011;9572;52.378;13.404;2023-03-19T02:30:58;18.03;;;9.73;;
18879;SDS011;9572;52.378;13.404;2023-03-19T02:33:25;16.90;;;10.03;;
18879;SDS011;9572;52.378;13.404;2023-03-19T02:35:52;15.40;;;9.40;;
18879;SDS011;9572;52.378;13.404;2023-03-19T02:38:20;17.67;;;10.10;;
18879;SDS011;9572;52.378;13.404;2023-03-19T02:40:52;15.80;;;8.03;;
18879;SDS011;9572;52.378;13.404;2023-03-19T02:43:23;16.17;;;9.40;;
18879;SDS011;9572;52.378;13.404;2023-03-19T02:45:50;17.50;;;8.60;;
18879;SDS011;9572;52.378;13.404;2023-03-19T02:48:17;15.93;;;9.60;;
18879;SDS011;9572;52.378;13.404;2023-03-19T02:50:44;21.70;;;9.77;;
18879;SDS011;9572;52.378;13.404;2023-03-19T02:53:11;15.83;;;9.53;;
18879;SDS011;9572;52.378;13.404;2023-03-19T02:55:38;14.83;;;9.30;;
18879;SDS011;9572;52.378;13.404;2023-03-19T02:58:06;15.60;;;9.13;;
18879;SDS011;9572;52.378;13.404;2023-03-19T03:00:33;15.37;;;9.40;;
18879;SDS011;9572;52.378;13.404;2023-03-19T03:03:01;13.30;;;9.00;;
18879;SDS011;9572;52.378;13.404;2023-03-19T03:05:30;16.00;;;9.07;;
18879;SDS011;9572;52.378;13.404;2023-03-19T03:07:57;19.50;;;9.70;;
18879;SDS011;9572;52.378;13.404;2023-03-19T03:10:24;18.60;;;9.97;;
18879;SDS011;9572;52.378;13.404;2023-03-19T03:12:51;18.90;;;10.37;;
18879;SDS011;9572;52.378;13.404;2023-03-19T03:15:21;17.90;;;10.20;;
18879;SDS011;9572;52.378;13.404;2023-03-19T03:17:48;14.97;;;8.90;;
18879;SDS011;9572;52.378;13.404;2023-03-19T03:20:15;19.00;;;9.90;;
18879;SDS011;9572;52.378;13.404;2023-03-19T03:22:44;16.23;;;9.67;;
18879;SDS011;9572;52.378;13.404;2023-03-19T03:25:12;17.10;;;10.03;;
18879;SDS011;9572;52.378;13.404;2023-03-19T03:27:39;16.17;;;8.83;;
18879;SDS011;9572;52.378;13.404;2023-03-19T03:30:07;14.83;;;9.73;;
18879;SDS011;9572;52.378;13.404;2023-03-19T03:32:36;15.53;;;9.33;;
18879;SDS011;9572;52.378;13.404;2023-03-19T03:35:05;18.13;;;9.60;;
18879;SDS011;9572;52.378;13.404;2023-03-19T03:37:32;14.97;;;9.70;;
18879;SDS011;9572;52.378;13.404;2023-03-19T03:39:59;15.67;;;9.27;;
18879;SDS011;9572;52.378;13.404;2023-03-19T03:42:30;15.27;;;8.93;;
18879;SDS011;9572;52.378;13.404;2023-03-19T03:44:57;17.90;;;9.90;;
18879;SDS011;9572;52.378;13.404;2023-03-19T03:47:24;16.63;;;10.33;;
18879;SDS011;9572;52.378;13.404;2023-03-19T03:49:53;17.70;;;10.17;;
18879;SDS011;9572;52.378;13.404;2023-03-19T03:52:19;17.17;;;9.40;;
18879;SDS011;9572;52.378;13.404;2023-03-19T03:54:46;15.53;;;9.90;;
18879;SDS011;9572;52.378;13.404;2023-03-19T03:57:13;19.57;;;10.60;;
18879;SDS011;9572;52.378;13.404;2023-03-19T03:59:40;20.30;;;10.83;;
18879;SDS011;9572;52.378;13.404;2023-03-19T04:02:07;17.13;;;10.17;;
18879;SDS011;9572;52.378;13.404;2023-03-19T04:04:34;15.77;;;9.40;;
18879;SDS011;9572;52.378;13.404;2023-03-19T04:07:02;17.40;;;10.00;;
18879;SDS011;9572;52.378;13.404;2023-03-19T04:09:30;18.10;;;10.00;;
18879;SDS011;9572;52.378;13.404;2023-03-19T04:11:57;19.30;;;9.33;;
18879;SDS011;9572;52.378;13.404;2023-03-19T04:14:24;17.00;;;10.17;;
18879;SDS011;9572;52.378;13.404;2023-03-19T04:16:51;16.07;;;9.50;;
18879;SDS011;9572;52.378;13.404;2023-03-19T04:19:18;13.67;;;9.27;;
18879;SDS011;9572;52.378;13.404;2023-03-19T04:21:45;21.20;;;10.20;;
18879;SDS011;9572;52.378;13.404;2023-03-19T04:24:14;19.50;;;10.63;;
18879;SDS011;9572;52.378;13.404;2023-03-19T04:26:41;18.17;;;10.30;;
18879;SDS011;9572;52.378;13.404;2023-03-19T04:29:08;18.37;;;10.07;;
18879;SDS011;9572;52.378;13.404;2023-03-19T04:31:34;16.87;;;10.20;;
18879;SDS011;9572;52.378;13.404;2023-03-19T04:34:02;16.00;;;9.73;;
18879;SDS011;9572;52.378;13.404;2023-03-19T04:36:29;17.20;;;9.87;;
18879;SDS011;9572;52.378;13.404;2023-03-19T04:38:57;18.50;;;10.27;;
18879;SDS011;9572;52.378;13.404;2023-03-19T04:41:25;19.03;;;10.60;;
18879;SDS011;9572;52.378;13.404;2023-03-19T04:43:52;18.67;;;10.17;;
18879;SDS011;9572;52.378;13.404;2023-03-19T04:46:19;16.93;;;9.03;;
18879;SDS011;9572;52.378;13.404;2023-03-19T04:48:45;22.47;;;10.50;;
18879;SDS011;9572;52.378;13.404;2023-03-19T04:51:12;21.80;;;11.90;;
18879;SDS011;9572;52.378;13.404;2023-03-19T04:53:40;18.10;;;10.87;;
18879;SDS011;9572;52.378;13.404;2023-03-19T04:56:08;18.13;;;10.50;;
18879;SDS011;9572;52.378;13.404;2023-03-19T04:58:37;17.73;;;10.20;;
18879;SDS011;9572;52.378;13.404;2023-03-19T05:01:03;16.97;;;9.97;;
18879;SDS011;9572;52.378;13.404;2023-03-19T05:03:31;16.17;;;10.33;;
18879;SDS011;9572;52.378;13.404;2023-03-19T05:05:58;20.07;;;11.10;;
18879;SDS011;9572;52.378;13.404;2023-03-19T05:08:24;18.07;;;10.27;;
18879;SDS011;9572;52.378;13.404;2023-03-19T05:10:51;22.70;;;11.30;;
18879;SDS011;9572;52.378;13.404;2023-03-19T05:13:18;20.07;;;10.67;;
18879;SDS011;9572;52.378;13.404;2023-03-19T05:15:46;17.90;;;10.53;;
18879;SDS011;9572;52.378;13.404;2023-03-19T05:18:13;20.30;;;10.30;;
18879;SDS011;9572;52.378;13.404;2023-03-19T05:20:40;16.77;;;10.07;;
18879;SDS011;9572;52.378;13.404;2023-03-19T05:23:08;15.10;;;9.80;;
18879;SDS011;9572;52.378;13.404;2023-03-19T05:25:35;21.90;;;10.67;;
18879;SDS011;9572;52.378;13.404;2023-03-19T05:28:02;21.10;;;11.07;;
18879;SDS011;9572;52.378;13.404;2023-03-19T05:30:31;19.03;;;11.03;;
18879;SDS011;9572;52.378;13.404;2023-03-19T05:33:00;20.53;;;10.60;;
18879;SDS011;9572;52.378;13.404;2023-03-19T05:35:28;18.60;;;10.97;;
18879;SDS011;9572;52.378;13.404;2023-03-19T05:37:55;18.10;;;11.07;;
18879;SDS011;9572;52.378;13.404;2023-03-19T05:40:22;22.07;;;10.90;;
18879;SDS011;9572;52.378;13.404;2023-03-19T05:42:49;15.80;;;10.30;;
18879;SDS011;9572;52.378;13.404;2023-03-19T05:45:16;16.63;;;10.33;;
18879;SDS011;9572;52.378;13.404;2023-03-19T05:47:45;15.60;;;10.63;;
18879;SDS011;9572;52.378;13.404;2023-03-19T05:50:13;19.67;;;11.37;;
18879;SDS011;9572;52.378;13.404;2023-03-19T05:52:41;18.13;;;10.53;;
18879;SDS011;9572;52.378;13.404;2023-03-19T05:55:08;17.87;;;10.53;;
18879;SDS011;9572;52.378;13.404;2023-03-19T05:57:35;17.03;;;10.73;;
18879;SDS011;9572;52.378;13.404;2023-03-19T06:00:02;22.00;;;11.97;;
18879;SDS011;9572;52.378;13.404;2023-03-19T06:02:30;22.60;;;11.70;;
18879;SDS011;9572;52.378;13.404;2023-03-19T06:04:57;19.77;;;10.97;;
18879;SDS011;9572;52.378;13.404;2023-03-19T06:07:25;23.77;;;12.10;;
18879;SDS011;9572;52.378;13.404;2023-03-19T06:09:52;19.27;;;10.93;;
18879;SDS011;9572;52.378;13.404;2023-03-19T06:12:19;19.13;;;11.07;;
18879;SDS011;9572;52.378;13.404;2023-03-19T06:14:46;18.93;;;10.53;;
18879;SDS011;9572;52.378;13.404;2023-03-19T06:17:13;21.33;;;11.27;;
18879;SDS011;9572;52.378;13.404;2023-03-19T06:19:40;17.23;;;10.47;;
18879;SDS011;9572;52.378;13.404;2023-03-19T06:22:07;19.17;;;10.90;;
18879;SDS011;9572;52.378;13.404;2023-03-19T06:24:35;22.90;;;12.23;;
18879;SDS011;9572;52.378;13.404;2023-03-19T06:27:02;20.57;;;12.40;;
18879;SDS011;9572;52.378;13.404;2023-03-19T06:29:29;19.27;;;10.80;;
18879;SDS011;9572;52.378;13.404;2023-03-19T06:31:56;19.17;;;10.47;;
18879;SDS011;9572;52.378;13.404;2023-03-19T06:34:23;19.17;;;10.73;;
18879;SDS011;9572;52.378;13.404;2023-03-19T06:36:50;19.93;;;11.33;;
18879;SDS011;9572;52.378;13.404;2023-03-19T06:39:17;19.13;;;11.80;;
18879;SDS011;9572;52.378;13.404;2023-03-19T06:41:46;18.90;;;11.07;;
18879;SDS011;9572;52.378;13.404;2023-03-19T06:44:13;21.33;;;11.70;;
18879;SDS011;9572;52.378;13.404;2023-03-19T06:46:40;18.10;;;10.80;;
18879;SDS011;9572;52.378;13.404;2023-03-19T06:49:07;18.60;;;12.10;;
18879;SDS011;9572;52.378;13.404;2023-03-19T06:51:34;18.77;;;11.37;;
18879;SDS011;9572;52.378;13.404;2023-03-19T06:54:01;18.63;;;11.40;;
18879;SDS011;9572;52.378;13.404;2023-03-19T06:56:28;21.10;;;11.47;;
18879;SDS011;9572;52.378;13.404;2023-03-19T06:58:56;19.33;;;11.93;;
18879;SDS011;9572;52.378;13.404;2023-03-19T07:01:23;20.47;;;11.77;;
18879;SDS011;9572;52.378;13.404;2023-03-19T07:03:50;19.93;;;11.20;;
18879;SDS011;9572;52.378;13.404;2023-03-19T07:06:17;20.40;;;12.00;;
18879;SDS011;9572;52.378;13.404;2023-03-19T07:08:44;22.40;;;11.97;;
18879;SDS011;9572;52.378;13.404;2023-03-19T07:11:11;18.97;;;12.10;;
18879;SDS011;9572;52.378;13.404;2023-03-19T07:13:38;19.73;;;11.50;;
18879;SDS011;9572;52.378;13.404;2023-03-19T07:16:07;23.93;;;11.97;;
18879;SDS011;9572;52.378;13.404;2023-03-19T07:18:34;21.77;;;11.80;;
18879;SDS011;9572;52.378;13.404;2023-03-19T07:21:01;19.57;;;11.80;;
18879;SDS011;9572;52.378;13.404;2023-03-19T07:23:28;20.47;;;12.20;;
18879;SDS011;9572;52.378;13.404;2023-03-19T07:25:55;20.10;;;11.10;;
18879;SDS011;9572;52.378;13.404;2023-03-19T07:28:22;21.60;;;12.13;;
18879;SDS011;9572;52.378;13.404;2023-03-19T07:30:50;19.53;;;12.03;;
18879;SDS011;9572;52.378;13.404;2023-03-19T07:33:18;22.87;;;12.70;;
18879;SDS011;9572;52.378;13.404;2023-03-19T07:35:54;20.43;;;11.83;;
18879;SDS011;9572;52.378;13.404;2023-03-19T07:38:21;18.53;;;12.33;;
18879;SDS011;9572;52.378;13.404;2023-03-19T07:40:48;21.57;;;11.93;;
18879;SDS011;9572;52.378;13.404;2023-03-19T07:43:15;20.30;;;11.97;;
18879;SDS011;9572;52.378;13.404;2023-03-19T07:45:42;21.33;;;12.30;;
18879;SDS011;9572;52.378;13.404;2023-03-19T07:48:09;21.40;;;11.73;;
18879;SDS011;9572;52.378;13.404;2023-03-19T07:50:38;20.03;;;11.80;;
18879;SDS011;9572;52.378;13.404;2023-03-19T07:53:05;18.10;;;11.50;;
18879;SDS011;9572;52.378;13.404;2023-03-19T07:55:32;18.83;;;11.67;;
18879;SDS011;9572;52.378;13.404;2023-03-19T07:57:59;24.57;;;11.67;;
18879;SDS011;9572;52.378;13.404;2023-03-19T08:00:26;17.83;;;11.33;;
18879;SDS011;9572;52.378;13.404;2023-03-19T08:02:52;18.77;;;10.83;;
18879;SDS011;9572;52.378;13.404;2023-03-19T08:05:19;17.80;;;10.30;;
18879;SDS011;9572;52.378;13.404;2023-03-19T08:07:48;18.93;;;11.30;;
18879;SDS011;9572;52.378;13.404;2023-03-19T08:10:16;15.03;;;9.97;;
18879;SDS011;9572;52.378;13.404;2023-03-19T08:12:43;16.50;;;10.13;;
18879;SDS011;9572;52.378;13.404;2023-03-19T08:15:10;17.30;;;9.90;;
18879;SDS011;9572;52.378;13.404;2023-03-19T08:17:37;16.60;;;10.10;;
18879;SDS011;9572;52.378;13.404;2023-03-19T08:20:05;14.83;;;9.30;;
18879;SDS011;9572;52.378;13.404;2023-03-19T08:22:34;16.77;;;9.53;;
18879;SDS011;9572;52.378;13.404;2023-03-19T08:25:03;23.67;;;11.23;;
18879;SDS011;9572;52.378;13.404;2023-03-19T08:27:31;22.07;;;11.07;;
18879;SDS011;9572;52.378;13.404;2023-03-19T08:29:59;17.70;;;11.40;;
18879;SDS011;9572;52.378;13.404;2023-03-19T08:32:28;18.97;;;11.30;;
18879;SDS011;9572;52.378;13.404;2023-03-19T08:34:55;16.77;;;11.50;;
18879;SDS011;9572;52.378;13.404;2023-03-19T08:37:21;21.13;;;12.17;;
18879;SDS011;9572;52.378;13.404;2023-03-19T08:39:49;19.17;;;11.67;;
18879;SDS011;9572;52.378;13.404;2023-03-19T08:42:17;21.27;;;13.10;;
18879;SDS011;9572;52.378;13.404;2023-03-19T08:44:45;19.80;;;11.90;;
18879;SDS011;9572;52.378;13.404;2023-03-19T08:47:12;22.47;;;12.53;;
18879;SDS011;9572;52.378;13.404;2023-03-19T08:49:39;19.77;;;12.07;;
18879;SDS011;9572;52.378;13.404;2023-03-19T08:52:06;23.00;;;14.03;;
18879;SDS011;9572;52.378;13.404;2023-03-19T08:54:33;24.27;;;14.70;;
18879;SDS011;9572;52.378;13.404;2023-03-19T08:57:00;29.00;;;15.60;;
18879;SDS011;9572;52.378;13.404;2023-03-19T08:59:29;25.73;;;14.50;;
18879;SDS011;9572;52.378;13.404;2023-03-19T09:01:56;31.97;;;15.83;;
18879;SDS011;9572;52.378;13.404;2023-03-19T09:04:23;25.67;;;15.17;;
18879;SDS011;9572;52.378;13.404;2023-03-19T09:06:50;28.77;;;15.90;;
18879;SDS011;9572;52.378;13.404;2023-03-19T09:09:17;28.83;;;16.20;;
18879;SDS011;9572;52.378;13.404;2023-03-19T09:11:44;30.27;;;16.63;;
18879;SDS011;9572;52.378;13.404;2023-03-19T09:14:11;26.77;;;16.03;;
18879;SDS011;9572;52.378;13.404;2023-03-19T09:16:42;26.37;;;15.67;;
18879;SDS011;9572;52.378;13.404;2023-03-19T09:19:09;26.83;;;15.47;;
18879;SDS011;9572;52.378;13.404;2023-03-19T09:21:36;27.30;;;15.80;;
18879;SDS011;9572;52.378;13.404;2023-03-19T09:24:02;24.97;;;15.23;;
18879;SDS011;9572;52.378;13.404;2023-03-19T09:26:30;24.40;;;14.93;;
18879;SDS011;9572;52.378;13.404;2023-03-19T09:28:56;23.73;;;14.40;;
18879;SDS011;9572;52.378;13.404;2023-03-19T09:31:24;26.37;;;14.50;;
18879;SDS011;9572;52.378;13.404;2023-03-19T09:33:52;24.47;;;14.27;;
18879;SDS011;9572;52.378;13.404;2023-03-19T09:36:19;25.80;;;14.37;;
18879;SDS011;9572;52.378;13.404;2023-03-19T09:38:46;22.70;;;14.00;;
18879;SDS011;9572;52.378;13.404;2023-03-19T09:41:14;25.03;;;13.53;;
18879;SDS011;9572;52.378;13.404;2023-03-19T09:43:55;29.30;;;14.10;;
18879;SDS011;9572;52.378;13.404;2023-03-19T09:46:26;22.27;;;13.77;;
18879;SDS011;9572;52.378;13.404;2023-03-19T09:49:02;19.07;;;12.70;;
18879;SDS011;9572;52.378;13.404;2023-03-19T09:51:34;21.97;;;12.73;;
18879;SDS011;9572;52.378;13.404;2023-03-19T09:54:12;23.43;;;13.30;;
18879;SDS011;9572;52.378;13.404;2023-03-19T09:57:01;23.27;;;12.70;;
18879;SDS011;9572;52.378;13.404;2023-03-19T09:59:28;22.27;;;14.10;;
18879;SDS011;9572;52.378;13.404;2023-03-19T10:02:14;23.60;;;14.13;;
18879;SDS011;9572;52.378;13.404;2023-03-19T10:05:06;24.63;;;13.90;;
18879;SDS011;9572;52.378;13.404;2023-03-19T10:07:44;24.30;;;13.90;;
18879;SDS011;9572;52.378;13.404;2023-03-19T10:10:27;22.27;;;12.77;;
18879;SDS011;9572;52.378;13.404;2023-03-19T10:13:06;19.67;;;12.97;;
18879;SDS011;9572;52.378;13.404;2023-03-19T10:15:37;21.87;;;14.00;;
18879;SDS011;9572;52.378;13.404;2023-03-19T10:18:06;25.50;;;15.60;;
18879;SDS011;9572;52.378;13.404;2023-03-19T10:20:44;24.03;;;14.53;;
18879;SDS011;9572;52.378;13.404;2023-03-19T10:23:36;25.30;;;14.87;;
18879;SDS011;9572;52.378;13.404;2023-03-19T10:26:09;18.97;;;13.20;;
18879;SDS011;9572;52.378;13.404;2023-03-19T10:28:40;20.93;;;13.70;;
18879;SDS011;9572;52.378;13.404;2023-03-19T10:31:13;21.03;;;13.23;;
18879;SDS011;9572;52.378;13.404;2023-03-19T10:33:51;21.10;;;13.97;;
18879;SDS011;9572;52.378;13.404;2023-03-19T10:36:25;20.73;;;13.47;;
18879;SDS011;9572;52.378;13.404;2023-03-19T10:38:56;17.60;;;11.87;;
18879;SDS011;9572;52.378;13.404;2023-03-19T10:41:26;18.37;;;12.87;;
18879;SDS011;9572;52.378;13.404;2023-03-19T10:44:00;21.57;;;13.00;;
18879;SDS011;9572;52.378;13.404;2023-03-19T10:46:35;16.03;;;12.07;;
18879;SDS011;9572;52.378;13.404;2023-03-19T10:49:02;18.13;;;11.15;;
18879;SDS011;9572;52.378;13.404;2023-03-19T10:51:31;20.20;;;10.17;;
18879;SDS011;9572;52.378;13.404;2023-03-19T10:53:59;14.93;;;10.23;;
18879;SDS011;9572;52.378;13.404;2023-03-19T10:56:26;14.43;;;9.32;;
18879;SDS011;9572;52.378;13.404;2023-03-19T10:58:59;10.18;;;8.20;;
18879;SDS011;9572;52.378;13.404;2023-03-19T11:01:30;15.32;;;8.98;;
18879;SDS011;9572;52.378;13.404;2023-03-19T11:03:58;12.55;;;8.05;;
18879;SDS011;9572;52.378;13.404;2023-03-19T11:06:32;11.98;;;8.07;;
18879;SDS011;9572;52.378;13.404;2023-03-19T11:09:00;11.15;;;6.78;;
18879;SDS011;9572;52.378;13.404;2023-03-19T11:11:41;9.50;;;7.18;;
18879;SDS011;9572;52.378;13.404;2023-03-19T11:14:13;14.00;;;7.43;;
18879;SDS011;9572;52.378;13.404;2023-03-19T11:16:45;13.63;;;8.18;;
18879;SDS011;9572;52.378;13.404;2023-03-19T11:19:18;10.23;;;6.30;;
18879;SDS011;9572;52.378;13.404;2023-03-19T11:21:59;8.77;;;5.50;;
18879;SDS011;9572;52.378;13.404;2023-03-19T11:24:30;7.50;;;5.20;;
18879;SDS011;9572;52.378;13.404;2023-03-19T11:26:58;6.80;;;5.05;;
18879;SDS011;9572;52.378;13.404;2023-03-19T11:29:27;5.78;;;4.95;;
18879;SDS011;9572;52.378;13.404;2023-03-19T11:31:57;6.18;;;4.60;;
18879;SDS011;9572;52.378;13.404;2023-03-19T11:34:34;6.85;;;4.63;;
18879;SDS011;9572;52.378;13.404;2023-03-19T11:37:13;5.38;;;4.57;;
18879;SDS011;9572;52.378;13.404;2023-03-19T11:39:54;7.20;;;4.72;;
18879;SDS011;9572;52.378;13.404;2023-03-19T11:42:35;6.90;;;4.15;;
18879;SDS011;9572;52.378;13.404;2023-03-19T11:45:14;6.35;;;4.32;;
18879;SDS011;9572;52.378;13.404;2023-03-19T11:47:49;5.85;;;4.55;;
18879;SDS011;9572;52.378;13.404;2023-03-19T11:50:24;6.05;;;3.80;;
18879;SDS011;9572;52.378;13.404;2023-03-19T11:53:05;5.07;;;3.72;;
18879;SDS011;9572;52.378;13.404;2023-03-19T11:55:40;5.15;;;3.92;;
18879;SDS011;9572;52.378;13.404;2023-03-19T11:58:16;4.82;;;3.50;;
18879;SDS011;9572;52.378;13.404;2023-03-19T12:01:06;6.00;;;4.47;;
18879;SDS011;9572;52.378;13.404;2023-03-19T12:03:48;7.82;;;4.57;;
18879;SDS011;9572;52.378;13.404;2023-03-19T12:06:34;5.55;;;4.10;;
18879;SDS011;9572;52.378;13.404;2023-03-19T12:09:13;8.73;;;4.40;;
18879;SDS011;9572;52.378;13.404;2023-03-19T12:11:50;7.38;;;4.28;;
18879;SDS011;9572;52.378;13.404;2023-03-19T12:14:22;6.25;;;4.43;;
18879;SDS011;9572;52.378;13.404;2023-03-19T12:16:59;6.45;;;4.13;;
18879;SDS011;9572;52.378;13.404;2023-03-19T12:22:55;7.88;;;4.97;;
18879;SDS011;9572;52.378;13.404;2023-03-19T12:25:37;8.63;;;5.22;;
18879;SDS011;9572;52.378;13.404;2023-03-19T12:28:12;7.32;;;5.20;;
18879;SDS011;9572;52.378;13.404;2023-03-19T12:30:44;8.77;;;5.57;;
18879;SDS011;9572;52.378;13.404;2023-03-19T12:33:24;8.23;;;5.40;;
18879;SDS011;9572;52.378;13.404;2023-03-19T12:36:01;9.90;;;5.22;;
18879;SDS011;9572;52.378;13.404;2023-03-19T12:38:30;8.27;;;5.45;;
18879;SDS011;9572;52.378;13.404;2023-03-19T12:41:04;7.97;;;5.13;;
18879;SDS011;9572;52.378;13.404;2023-03-19T12:43:35;7.20;;;5.22;;
18879;SDS011;9572;52.378;13.404;2023-03-19T12:46:12;9.90;;;5.47;;
18879;SDS011;9572;52.378;13.404;2023-03-19T12:48:42;7.38;;;5.15;;
18879;SDS011;9572;52.378;13.404;2023-03-19T12:51:14;7.22;;;5.10;;
18879;SDS011;9572;52.378;13.404;2023-03-19T12:53:46;9.90;;;4.78;;
18879;SDS011;9572;52.378;13.404;2023-03-19T12:56:20;6.05;;;4.32;;
18879;SDS011;9572;52.378;13.404;2023-03-19T12:58:55;6.50;;;4.80;;
18879;SDS011;9572;52.378;13.404;2023-03-19T13:01:28;7.38;;;5.05;;
18879;SDS011;9572;52.378;13.404;2023-03-19T13:03:58;10.27;;;5.28;;
18879;SDS011;9572;52.378;13.404;2023-03-19T13:06:33;8.70;;;5.00;;
18879;SDS011;9572;52.378;13.404;2023-03-19T13:09:03;8.88;;;5.25;;
18879;SDS011;9572;52.378;13.404;2023-03-19T13:11:35;7.38;;;5.00;;
18879;SDS011;9572;52.378;13.404;2023-03-19T13:14:12;7.43;;;5.22;;
18879;SDS011;9572;52.378;13.404;2023-03-19T13:16:43;10.82;;;5.28;;
18879;SDS011;9572;52.378;13.404;2023-03-19T13:19:15;9.75;;;5.70;;
18879;SDS011;9572;52.378;13.404;2023-03-19T13:21:48;8.82;;;6.15;;
18879;SDS011;9572;52.378;13.404;2023-03-19T13:24:19;8.75;;;5.57;;
18879;SDS011;9572;52.378;13.404;2023-03-19T13:26:51;7.45;;;5.10;;
18879;SDS011;9572;52.378;13.404;2023-03-19T13:29:20;7.93;;;5.15;;
18879;SDS011;9572;52.378;13.404;2023-03-19T13:31:48;7.53;;;5.38;;
18879;SDS011;9572;52.378;13.404;2023-03-19T13:34:20;8.10;;;5.00;;
18879;SDS011;9572;52.378;13.404;2023-03-19T13:36:52;10.20;;;5.07;;
18879;SDS011;9572;52.378;13.404;2023-03-19T13:39:25;6.93;;;4.63;;
18879;SDS011;9572;52.378;13.404;2023-03-19T13:42:20;6.90;;;4.45;;
18879;SDS011;9572;52.378;13.404;2023-03-19T13:45:01;7.30;;;4.63;;
18879;SDS011;9572;52.378;13.404;2023-03-19T13:47:37;5.97;;;4.28;;
18879;SDS011;9572;52.378;13.404;2023-03-19T13:50:22;9.45;;;5.30;;
18879;SDS011;9572;52.378;13.404;2023-03-19T13:53:33;7.13;;;4.90;;
18879;SDS011;9572;52.378;13.404;2023-03-19T13:56:03;7.95;;;4.38;;
18879;SDS011;9572;52.378;13.404;2023-03-19T13:58:44;6.50;;;5.05;;
18879;SDS011;9572;52.378;13.404;2023-03-19T14:04:00;8.88;;;5.07;;
18879;SDS011;9572;52.378;13.404;2023-03-19T14:06:29;9.93;;;5.25;;
18879;SDS011;9572;52.378;13.404;2023-03-19T14:09:00;5.68;;;4.28;;
18879;SDS011;9572;52.378;13.404;2023-03-19T14:11:29;9.77;;;5.13;;
18879;SDS011;9572;52.378;13.404;2023-03-19T14:14:01;8.25;;;5.18;;
18879;SDS011;9572;52.378;13.404;2023-03-19T14:16:30;10.68;;;5.32;;
18879;SDS011;9572;52.378;13.404;2023-03-19T14:18:59;7.25;;;4.85;;
18879;SDS011;9572;52.378;13.404;2023-03-19T14:21:31;7.63;;;4.65;;
18879;SDS011;9572;52.378;13.404;2023-03-19T14:24:24;7.45;;;5.00;;
18879;SDS011;9572;52.378;13.404;2023-03-19T14:27:00;8.35;;;4.93;;
18879;SDS011;9572;52.378;13.404;2023-03-19T14:29:30;7.60;;;4.85;;
18879;SDS011;9572;52.378;13.404;2023-03-19T14:32:00;7.90;;;5.38;;
18879;SDS011;9572;52.378;13.404;2023-03-19T14:34:33;7.07;;;4.90;;
18879;SDS011;9572;52.378;13.404;2023-03-19T14:37:03;6.28;;;5.03;;
18879;SDS011;9572;52.378;13.404;2023-03-19T14:39:41;8.75;;;4.72;;
18879;SDS011;9572;52.378;13.404;2023-03-19T14:42:13;9.45;;;4.70;;
18879;SDS011;9572;52.378;13.404;2023-03-19T14:44:49;8.15;;;4.82;;
18879;SDS011;9572;52.378;13.404;2023-03-19T14:47:48;7.25;;;4.32;;
18879;SDS011;9572;52.378;13.404;2023-03-19T14:50:38;6.03;;;4.82;;
18879;SDS011;9572;52.378;13.404;2023-03-19T14:53:21;7.70;;;5.25;;
18879;SDS011;9572;52.378;13.404;2023-03-19T14:55:51;8.73;;;5.00;;